createdAt,value
2023-03-08T00:00:21.047Z,88.73
2023-03-08T00:03:15.579Z,88.94
2023-03-08T00:05:44.844Z,89.47
2023-03-08T00:08:14.024Z,89.47
2023-03-08T00:10:44.483Z,89.74
2023-03-08T00:13:13.908Z,89.32
2023-03-08T00:15:43.037Z,89.21
2023-03-08T00:18:11.838Z,89.71
2023-03-08T00:20:40.928Z,89.46
2023-03-08T00:23:10.557Z,89.93
2023-03-08T00:25:39.649Z,90.17
2023-03-08T00:28:09.765Z,90.13
2023-03-08T00:30:38.826Z,90.37
2023-03-08T00:33:07.653Z,90.39
2023-03-08T00:35:36.744Z,89.94
2023-03-08T00:38:05.583Z,89.93
2023-03-08T00:40:34.698Z,89.69
2023-03-08T00:43:03.460Z,89.66
2023-03-08T00:45:33.879Z,89.38
2023-03-08T00:48:02.676Z,90.00
2023-03-08T00:50:31.831Z,90.29
2023-03-08T00:53:00.588Z,90.63
2023-03-08T00:55:29.788Z,90.62
2023-03-08T00:57:58.637Z,90.71
2023-03-08T01:00:27.981Z,90.75
2023-03-08T01:02:58.966Z,90.75
2023-03-08T01:05:29.909Z,91.02
2023-03-08T01:07:58.719Z,91.29
2023-03-08T01:10:27.866Z,91.28
2023-03-08T01:12:56.644Z,91.29
2023-03-08T01:15:25.782Z,91.08
2023-03-08T01:17:54.764Z,90.67
2023-03-08T01:20:25.201Z,90.25
2023-03-08T01:22:54.000Z,90.62
2023-03-08T01:25:23.340Z,90.48
2023-03-08T01:27:52.614Z,90.50
2023-03-08T01:30:22.245Z,90.17
2023-03-08T01:32:51.132Z,90.54
2023-03-08T01:35:21.261Z,90.48
2023-03-08T01:37:54.325Z,90.76
2023-03-08T01:40:24.701Z,90.48
2023-03-08T01:42:53.576Z,90.72
2023-03-08T01:46:07.986Z,90.02
2023-03-08T01:48:43.845Z,90.37
2023-03-08T01:51:24.729Z,90.03
2023-03-08T01:53:57.370Z,89.94
2023-03-08T01:56:28.007Z,90.20
2023-03-08T01:59:00.090Z,90.24
2023-03-08T02:01:29.915Z,89.59
2023-03-08T02:04:01.033Z,89.58
2023-03-08T02:06:30.704Z,89.63
2023-03-08T02:09:04.581Z,88.48
2023-03-08T02:11:37.021Z,88.99
2023-03-08T02:14:06.358Z,88.38
2023-03-08T02:16:36.582Z,88.13
2023-03-08T02:19:13.851Z,88.24
2023-03-08T02:21:43.329Z,88.13
2023-03-08T02:24:23.510Z,87.94
2023-03-08T02:27:01.584Z,87.91
2023-03-08T02:29:30.549Z,87.63
2023-03-08T02:31:59.630Z,87.18
2023-03-08T02:34:28.394Z,87.94
2023-03-08T02:36:57.554Z,87.70
2023-03-08T02:39:28.148Z,87.94
2023-03-08T02:41:57.857Z,87.76
2023-03-08T02:44:27.066Z,87.29
2023-03-08T02:46:56.182Z,87.05
2023-03-08T02:49:25.406Z,87.31
2023-03-08T02:51:54.472Z,87.71
2023-03-08T02:54:23.287Z,87.57
2023-03-08T02:56:53.744Z,88.14
2023-03-08T02:59:23.946Z,88.15
2023-03-08T03:01:55.061Z,88.21
2023-03-08T03:04:24.148Z,87.89
2023-03-08T03:06:53.200Z,87.51
2023-03-08T03:09:22.433Z,87.65
2023-03-08T03:11:53.118Z,87.69
2023-03-08T03:14:21.957Z,87.78
2023-03-08T03:16:51.146Z,88.02
2023-03-08T03:19:19.905Z,88.28
2023-03-08T03:21:49.310Z,88.12
2023-03-08T03:24:18.568Z,88.15
2023-03-08T03:26:54.852Z,88.11
2023-03-08T03:29:26.663Z,87.75
2023-03-08T03:32:06.777Z,88.35
2023-03-08T03:34:35.767Z,88.15
2023-03-08T03:37:05.341Z,88.34
2023-03-08T03:39:39.106Z,87.75
2023-03-08T03:42:12.264Z,88.19
2023-03-08T03:44:47.538Z,88.10
2023-03-08T03:47:21.416Z,88.35
2023-03-08T03:49:55.031Z,88.24
2023-03-08T03:52:25.682Z,88.69
2023-03-08T03:55:02.947Z,88.99
2023-03-08T03:57:33.925Z,89.23
2023-03-08T04:00:03.551Z,89.74
2023-03-08T04:02:43.154Z,89.49
2023-03-08T04:05:15.332Z,89.60
2023-03-08T04:07:48.543Z,89.50
2023-03-08T04:10:18.773Z,89.78
2023-03-08T04:12:52.441Z,89.75
2023-03-08T04:15:23.271Z,89.80
2023-03-08T04:17:54.289Z,89.98
2023-03-08T04:20:26.541Z,90.07
2023-03-08T04:23:00.099Z,89.56
2023-03-08T04:25:34.953Z,89.61
2023-03-08T04:28:07.085Z,89.38
2023-03-08T04:30:36.203Z,89.51
2023-03-08T04:33:07.186Z,89.65
2023-03-08T04:35:46.963Z,89.44
2023-03-08T04:38:17.297Z,89.93
2023-03-08T04:41:10.403Z,89.95
2023-03-08T04:43:51.458Z,89.21
2023-03-08T04:46:26.502Z,89.50
2023-03-08T04:48:56.694Z,89.58
2023-03-08T04:51:28.788Z,89.32
2023-03-08T04:54:00.968Z,89.13
2023-03-08T04:56:30.813Z,89.11
2023-03-08T04:59:03.088Z,89.19
2023-03-08T05:01:32.818Z,89.34
2023-03-08T05:04:02.059Z,89.06
2023-03-08T05:06:37.123Z,89.01
2023-03-08T05:09:07.205Z,88.84
2023-03-08T05:11:38.137Z,88.82
2023-03-08T05:14:10.796Z,88.95
2023-03-08T05:16:39.868Z,88.57
2023-03-08T05:19:09.004Z,88.45
2023-03-08T05:21:44.949Z,88.15
2023-03-08T05:24:15.231Z,88.30
2023-03-08T05:26:44.083Z,88.36
2023-03-08T05:29:18.779Z,87.51
2023-03-08T05:31:47.745Z,87.86
2023-03-08T05:34:17.676Z,87.30
2023-03-08T05:36:49.386Z,87.12
2023-03-08T05:39:18.555Z,86.40
2023-03-08T05:41:59.994Z,86.54
2023-03-08T05:44:37.734Z,86.52
2023-03-08T05:47:07.975Z,85.97
2023-03-08T05:49:38.520Z,85.65
2023-03-08T05:52:08.717Z,85.63
2023-03-08T05:54:39.633Z,85.33
2023-03-08T05:57:13.124Z,85.19
2023-03-08T05:59:44.164Z,85.36
2023-03-08T06:02:16.506Z,85.33
2023-03-08T06:04:49.690Z,84.58
2023-03-08T06:07:22.086Z,85.18
2023-03-08T06:10:06.114Z,85.20
2023-03-08T06:12:34.993Z,85.39
2023-03-08T06:15:11.601Z,85.46
2023-03-08T06:17:41.817Z,85.53
2023-03-08T06:20:13.158Z,84.99
2023-03-08T06:22:46.193Z,84.09
2023-03-08T06:25:15.404Z,83.80
2023-03-08T06:27:45.595Z,83.66
2023-03-08T06:30:27.202Z,83.13
2023-03-08T06:32:56.666Z,82.45
2023-03-08T06:35:26.179Z,82.59
2023-03-08T06:37:59.558Z,81.86
2023-03-08T06:40:28.866Z,81.34
2023-03-08T06:42:57.769Z,81.54
2023-03-08T06:45:28.557Z,81.07
2023-03-08T06:47:57.452Z,80.74
2023-03-08T06:50:26.911Z,80.12
2023-03-08T06:52:56.707Z,80.01
2023-03-08T06:55:39.223Z,79.35
2023-03-08T06:58:09.332Z,79.95
2023-03-08T07:00:40.229Z,78.64
2023-03-08T07:03:09.101Z,78.90
2023-03-08T07:05:38.134Z,78.56
2023-03-08T07:08:08.037Z,78.13
2023-03-08T07:10:37.139Z,77.25
2023-03-08T07:13:06.055Z,76.46
2023-03-08T07:15:35.193Z,75.94
2023-03-08T07:18:05.884Z,76.37
2023-03-08T07:20:34.957Z,75.75
2023-03-08T07:23:03.873Z,75.19
2023-03-08T07:25:32.989Z,73.80
2023-03-08T07:28:01.950Z,72.96
2023-03-08T07:30:31.280Z,73.06
2023-03-08T07:33:00.134Z,71.80
2023-03-08T07:35:30.906Z,71.74
2023-03-08T07:37:59.673Z,70.86
2023-03-08T07:40:28.978Z,71.74
2023-03-08T07:42:57.832Z,70.92
2023-03-08T07:45:49.757Z,70.29
2023-03-08T07:48:18.604Z,69.95
2023-03-08T07:50:49.159Z,70.49
2023-03-08T07:53:18.073Z,69.58
2023-03-08T07:55:47.525Z,69.67
2023-03-08T07:58:16.607Z,68.85
2023-03-08T08:00:45.811Z,70.02
2023-03-08T08:03:14.592Z,68.20
2023-03-08T08:05:43.835Z,68.58
2023-03-08T08:08:14.857Z,68.50
2023-03-08T08:10:44.740Z,68.01
2023-03-08T08:13:13.625Z,67.94
2023-03-08T08:15:42.749Z,68.08
2023-03-08T08:18:11.503Z,67.56
2023-03-08T08:20:40.580Z,68.45
2023-03-08T08:23:09.664Z,66.89
2023-03-08T08:25:41.212Z,66.85
2023-03-08T08:28:10.017Z,67.44
2023-03-08T08:30:39.250Z,65.59
2023-03-08T08:33:08.063Z,64.94
2023-03-08T08:35:43.439Z,63.49
2023-03-08T08:38:12.576Z,64.12
2023-03-08T08:40:43.061Z,62.13
2023-03-08T08:43:11.848Z,62.60
2023-03-08T08:45:45.693Z,63.31
2023-03-08T08:48:15.559Z,62.55
2023-03-08T08:50:44.724Z,62.88
2023-03-08T08:53:13.594Z,63.25
2023-03-08T08:55:45.624Z,63.14
2023-03-08T08:58:15.621Z,62.22
2023-03-08T09:00:45.837Z,60.64
2023-03-08T09:03:14.744Z,61.80
2023-03-08T09:05:46.204Z,59.04
2023-03-08T09:08:15.581Z,58.44
2023-03-08T09:10:46.305Z,59.37
2023-03-08T09:13:15.165Z,59.48
2023-03-08T09:15:44.248Z,58.20
2023-03-08T09:18:13.074Z,57.27
2023-03-08T09:20:42.160Z,55.94
2023-03-08T09:23:11.284Z,54.03
2023-03-08T09:25:40.462Z,52.78
2023-03-08T09:28:12.392Z,52.43
2023-03-08T09:30:41.520Z,51.34
2023-03-08T09:33:10.437Z,50.50
2023-03-08T09:35:39.700Z,49.85
2023-03-08T09:38:08.584Z,50.61
2023-03-08T09:40:54.306Z,50.02
2023-03-08T09:43:39.480Z,50.04
2023-03-08T09:46:15.009Z,48.75
2023-03-08T09:48:50.948Z,48.32
2023-03-08T09:51:24.715Z,47.04
2023-03-08T09:54:03.087Z,46.10
2023-03-08T09:56:38.672Z,46.45
2023-03-08T09:59:14.732Z,48.31
2023-03-08T10:01:56.770Z,45.43
2023-03-08T10:05:09.999Z,43.94
2023-03-08T10:07:56.929Z,44.76
2023-03-08T10:10:40.239Z,45.34
2023-03-08T10:13:31.989Z,47.10
2023-03-08T10:16:15.782Z,45.97
2023-03-08T10:18:52.288Z,45.13
2023-03-08T10:21:25.464Z,45.65
2023-03-08T10:24:06.186Z,46.88
2023-03-08T10:26:35.719Z,45.78
2023-03-08T10:29:04.958Z,46.50
2023-03-08T10:31:35.122Z,46.84
2023-03-08T10:34:12.884Z,47.31
2023-03-08T10:36:52.530Z,49.16
2023-03-08T10:39:22.541Z,51.17
2023-03-08T10:41:56.819Z,46.82
2023-03-08T10:44:37.079Z,42.43
2023-03-08T10:47:21.944Z,42.70
2023-03-08T10:49:51.693Z,41.01
2023-03-08T10:52:28.693Z,41.02
2023-03-08T10:55:06.521Z,38.80
2023-03-08T10:57:35.823Z,39.48
2023-03-08T11:00:22.628Z,39.43
2023-03-08T11:03:11.906Z,39.09
2023-03-08T11:05:41.595Z,38.72
2023-03-08T11:08:21.471Z,39.42
2023-03-08T11:11:02.802Z,40.58
2023-03-08T11:13:35.432Z,42.17
2023-03-08T11:16:49.723Z,44.02
2023-03-08T11:19:54.059Z,45.87
2023-03-08T11:22:39.975Z,47.69
2023-03-08T11:25:35.470Z,48.35
2023-03-08T11:28:38.925Z,49.50
2023-03-08T11:31:20.290Z,48.91
2023-03-08T11:34:23.335Z,47.70
2023-03-08T11:37:03.922Z,48.63
2023-03-08T11:39:39.348Z,49.38
2023-03-08T11:42:25.179Z,50.17
2023-03-08T11:45:16.013Z,50.13
2023-03-08T11:48:34.242Z,49.07
2023-03-08T11:51:12.652Z,48.21
2023-03-08T11:53:57.311Z,48.27
2023-03-08T11:56:51.794Z,48.97
2023-03-08T11:59:34.218Z,48.47
2023-03-08T12:02:16.115Z,47.75
2023-03-08T12:04:59.313Z,45.33
2023-03-08T12:07:37.495Z,47.08
2023-03-08T12:10:19.998Z,47.24
2023-03-08T12:12:55.474Z,47.33
2023-03-08T12:15:33.029Z,47.58
2023-03-08T12:18:15.686Z,46.74
2023-03-08T12:20:46.420Z,45.32
2023-03-08T12:23:30.385Z,40.66
2023-03-08T12:26:10.206Z,38.95
2023-03-08T12:28:48.376Z,40.47
2023-03-08T12:31:29.432Z,41.87
2023-03-08T12:34:01.037Z,43.64
2023-03-08T12:36:41.460Z,44.28
2023-03-08T12:39:27.194Z,46.21
2023-03-08T12:42:14.348Z,46.29
2023-03-08T12:44:44.084Z,47.38
2023-03-08T12:47:23.299Z,47.32
2023-03-08T12:49:57.231Z,48.01
2023-03-08T12:52:33.350Z,48.08
2023-03-08T12:55:09.178Z,48.87
2023-03-08T12:57:49.056Z,47.69
2023-03-08T13:00:33.942Z,47.41
2023-03-08T13:03:28.307Z,47.57
2023-03-08T13:05:57.442Z,47.45
2023-03-08T13:08:40.892Z,47.61
2023-03-08T13:11:14.907Z,48.40
2023-03-08T13:13:54.339Z,47.84
2023-03-08T13:16:35.842Z,47.80
2023-03-08T13:19:28.044Z,47.71
2023-03-08T13:22:17.176Z,47.36
2023-03-08T13:24:56.667Z,47.33
2023-03-08T13:27:47.631Z,47.57
2023-03-08T13:30:26.515Z,48.10
2023-03-08T13:32:56.185Z,48.20
2023-03-08T13:35:25.098Z,49.00
2023-03-08T13:37:56.889Z,48.67
2023-03-08T13:40:27.249Z,47.37
2023-03-08T13:42:58.979Z,47.42
2023-03-08T13:45:29.981Z,46.94
2023-03-08T13:48:03.974Z,47.62
2023-03-08T13:50:36.988Z,47.30
2023-03-08T13:53:12.349Z,47.44
2023-03-08T13:55:45.440Z,47.65
2023-03-08T13:58:32.183Z,48.26
2023-03-08T14:01:11.107Z,47.90
2023-03-08T14:03:41.965Z,47.32
2023-03-08T14:06:20.848Z,47.93
2023-03-08T14:08:51.020Z,48.94
2023-03-08T14:11:24.506Z,47.76
2023-03-08T14:13:56.377Z,48.39
2023-03-08T14:16:32.260Z,48.97
2023-03-08T14:19:22.088Z,48.19
2023-03-08T14:21:54.652Z,49.15
2023-03-08T14:24:27.558Z,48.22
2023-03-08T14:27:00.753Z,47.89
2023-03-08T14:29:32.656Z,47.61
2023-03-08T14:32:08.191Z,46.70
2023-03-08T14:34:40.558Z,46.68
2023-03-08T14:37:25.670Z,46.69
2023-03-08T14:39:58.213Z,45.84
2023-03-08T14:42:41.861Z,46.32
2023-03-08T14:45:24.993Z,46.02
2023-03-08T14:47:58.810Z,47.53
2023-03-08T14:50:31.027Z,46.90
2023-03-08T14:53:02.584Z,48.13
2023-03-08T14:55:35.068Z,47.71
2023-03-08T14:58:11.342Z,47.62
2023-03-08T15:00:51.272Z,48.11
2023-03-08T15:03:21.600Z,48.13
2023-03-08T15:05:50.988Z,48.20
2023-03-08T15:08:19.969Z,49.27
2023-03-08T15:10:50.331Z,48.40
2023-03-08T15:13:22.446Z,48.03
2023-03-08T15:15:52.234Z,48.88
2023-03-08T15:18:22.477Z,48.16
2023-03-08T15:20:52.899Z,48.57
2023-03-08T15:23:26.303Z,49.20
2023-03-08T15:25:55.959Z,48.99
2023-03-08T15:28:25.523Z,48.39
2023-03-08T15:30:55.868Z,49.51
2023-03-08T15:33:26.389Z,50.01
2023-03-08T15:35:55.743Z,50.01
2023-03-08T15:38:24.846Z,50.47
2023-03-08T15:40:53.934Z,50.87
2023-03-08T15:43:22.740Z,51.89
2023-03-08T15:45:51.826Z,52.04
2023-03-08T15:48:20.948Z,52.31
2023-03-08T15:50:51.409Z,52.11
2023-03-08T15:53:33.224Z,52.39
2023-03-08T15:56:04.285Z,52.70
2023-03-08T15:58:33.042Z,51.82
2023-03-08T16:01:02.144Z,52.44
2023-03-08T16:03:31.557Z,52.54
2023-03-08T16:06:02.669Z,52.48
2023-03-08T16:08:32.049Z,53.20
2023-03-08T16:11:04.121Z,53.53
2023-03-08T16:13:33.059Z,53.34
2023-03-08T16:16:03.903Z,54.00
2023-03-08T16:18:33.856Z,54.28
2023-03-08T16:21:09.601Z,54.16
2023-03-08T16:23:38.744Z,54.51
2023-03-08T16:26:15.767Z,55.62
2023-03-08T16:28:48.233Z,55.70
2023-03-08T16:31:21.885Z,55.88
2023-03-08T16:33:50.730Z,56.64
2023-03-08T16:36:21.200Z,57.48
2023-03-08T16:38:50.011Z,57.85
2023-03-08T16:41:20.144Z,57.83
2023-03-08T16:43:49.257Z,58.44
2023-03-08T16:46:21.447Z,59.33
2023-03-08T16:48:54.502Z,59.28
2023-03-08T16:51:27.872Z,60.83
2023-03-08T16:53:56.910Z,62.95
2023-03-08T16:56:29.302Z,64.59
2023-03-08T16:59:02.247Z,66.02
2023-03-08T17:01:32.437Z,67.57
2023-03-08T17:04:01.381Z,68.09
2023-03-08T17:06:33.571Z,69.15
2023-03-08T17:09:02.724Z,70.10
2023-03-08T17:11:35.720Z,70.34
2023-03-08T17:14:09.447Z,71.13
2023-03-08T17:16:39.956Z,71.29
2023-03-08T17:19:13.265Z,71.33
2023-03-08T17:21:43.756Z,71.71
2023-03-08T17:24:15.442Z,71.98
2023-03-08T17:26:47.724Z,72.29
2023-03-08T17:29:16.717Z,72.33
2023-03-08T17:31:46.148Z,72.63
2023-03-08T17:34:15.092Z,72.94
2023-03-08T17:36:46.804Z,73.18
2023-03-08T17:39:15.906Z,73.37
2023-03-08T17:41:45.214Z,73.57
2023-03-08T17:44:14.448Z,72.99
2023-03-08T17:46:43.568Z,72.64
2023-03-08T17:49:14.052Z,72.39
2023-03-08T17:51:44.575Z,72.76
2023-03-08T17:54:13.973Z,72.51
2023-03-08T17:56:43.141Z,73.21
2023-03-08T17:59:15.966Z,73.24
2023-03-08T18:01:45.345Z,73.68
2023-03-08T18:04:14.206Z,73.93
2023-03-08T18:06:44.752Z,74.20
2023-03-08T18:09:16.929Z,74.59
2023-03-08T18:11:48.253Z,75.13
2023-03-08T18:14:17.396Z,75.40
2023-03-08T18:16:46.803Z,76.19
2023-03-08T18:19:15.677Z,77.29
2023-03-08T18:21:52.505Z,78.00
2023-03-08T18:24:22.637Z,79.07
2023-03-08T18:26:52.266Z,79.93
2023-03-08T18:29:21.654Z,80.80
2023-03-08T18:31:50.927Z,81.17
2023-03-08T18:34:19.724Z,82.00
2023-03-08T18:36:50.201Z,82.22
2023-03-08T18:39:19.106Z,82.98
2023-03-08T18:41:48.226Z,82.94
2023-03-08T18:44:17.132Z,83.53
2023-03-08T18:46:46.244Z,84.41
2023-03-08T18:49:15.946Z,85.59
2023-03-08T18:51:45.457Z,85.73
2023-03-08T18:54:20.574Z,86.54
2023-03-08T18:56:53.711Z,86.72
2023-03-08T18:59:23.705Z,86.58
2023-03-08T19:01:54.154Z,86.74
2023-03-08T19:04:23.537Z,87.37
2023-03-08T19:06:52.905Z,87.84
2023-03-08T19:09:23.232Z,87.65
2023-03-08T19:11:53.438Z,87.92
2023-03-08T19:14:22.372Z,88.17
2023-03-08T19:16:51.502Z,88.50
2023-03-08T19:19:20.336Z,88.65
2023-03-08T19:21:50.787Z,88.98
2023-03-08T19:24:22.394Z,89.24
2023-03-08T19:26:53.323Z,89.42
2023-03-08T19:29:24.604Z,89.59
2023-03-08T19:31:56.869Z,89.35
2023-03-08T19:34:28.454Z,89.51
2023-03-08T19:36:58.430Z,89.07
2023-03-08T19:39:31.919Z,88.91
2023-03-08T19:42:03.989Z,88.83
2023-03-08T19:44:33.856Z,88.26
2023-03-08T19:47:04.620Z,89.02
2023-03-08T19:49:37.916Z,88.70
2023-03-08T19:52:08.459Z,88.61
2023-03-08T19:54:39.319Z,88.64
2023-03-08T19:57:09.367Z,88.34
2023-03-08T19:59:38.759Z,88.21
2023-03-08T20:02:10.060Z,88.26
2023-03-08T20:04:40.854Z,88.30
2023-03-08T20:07:10.001Z,88.26
2023-03-08T20:09:41.533Z,88.43
2023-03-08T20:12:11.204Z,88.57
2023-03-08T20:14:40.076Z,88.36
2023-03-08T20:17:09.294Z,88.36
2023-03-08T20:19:38.177Z,88.66
2023-03-08T20:22:25.629Z,88.54
2023-03-08T20:24:55.858Z,88.70
2023-03-08T20:27:25.041Z,89.06
2023-03-08T20:29:54.207Z,89.33
2023-03-08T20:32:23.344Z,89.44
2023-03-08T20:34:52.250Z,89.21
2023-03-08T20:37:21.362Z,89.25
2023-03-08T20:39:53.056Z,88.90
2023-03-08T20:42:23.593Z,88.76
2023-03-08T20:44:52.647Z,89.06
2023-03-08T20:47:21.724Z,88.99
2023-03-08T20:49:50.476Z,89.11
2023-03-08T20:52:19.697Z,88.67
2023-03-08T20:54:48.522Z,88.92
2023-03-08T20:57:18.221Z,88.60
2023-03-08T20:59:49.525Z,88.64
2023-03-08T21:02:18.733Z,88.26
2023-03-08T21:04:47.634Z,88.43
2023-03-08T21:07:16.838Z,88.06
2023-03-08T21:09:46.386Z,88.52
2023-03-08T21:12:15.918Z,88.94
2023-03-08T21:14:45.003Z,88.93
2023-03-08T21:17:15.676Z,88.68
2023-03-08T21:19:44.614Z,88.49
2023-03-08T21:22:13.794Z,88.69
2023-03-08T21:24:42.726Z,88.81
2023-03-08T21:27:11.862Z,88.72
2023-03-08T21:29:41.028Z,89.02
2023-03-08T21:32:10.253Z,88.52
2023-03-08T21:34:40.982Z,88.70
2023-03-08T21:37:10.152Z,88.78
2023-03-08T21:39:39.051Z,88.57
2023-03-08T21:42:08.199Z,88.66
2023-03-08T21:44:37.152Z,88.65
2023-03-08T21:47:06.551Z,88.30
2023-03-08T21:49:35.688Z,87.64
2023-03-08T21:52:06.620Z,87.80
2023-03-08T21:54:35.406Z,88.08
2023-03-08T21:57:04.772Z,87.77
2023-03-08T21:59:33.586Z,87.87
2023-03-08T22:02:02.902Z,88.17
2023-03-08T22:04:31.828Z,88.17
2023-03-08T22:07:00.958Z,88.12
2023-03-08T22:09:31.274Z,87.97
2023-03-08T22:12:00.467Z,88.09
2023-03-08T22:14:30.799Z,88.00
2023-03-08T22:17:01.468Z,87.25
2023-03-08T22:19:30.308Z,87.72
2023-03-08T22:21:59.584Z,87.36
2023-03-08T22:24:32.802Z,87.45
2023-03-08T22:27:03.234Z,87.71
2023-03-08T22:29:32.206Z,87.26
2023-03-08T22:32:01.441Z,87.97
2023-03-08T22:34:30.314Z,88.22
2023-03-08T22:37:00.463Z,87.66
2023-03-08T22:39:30.685Z,87.90
2023-03-08T22:41:59.846Z,87.49
2023-03-08T22:44:28.835Z,87.87
2023-03-08T22:46:58.204Z,87.83
2023-03-08T22:49:27.247Z,87.57
2023-03-08T22:51:56.340Z,88.04
2023-03-08T22:54:26.071Z,87.37
2023-03-08T22:56:56.842Z,87.73
2023-03-08T22:59:25.943Z,87.55
2023-03-08T23:01:55.444Z,87.44
2023-03-08T23:04:24.469Z,87.36
2023-03-08T23:06:53.629Z,87.26
2023-03-08T23:09:23.289Z,87.69
2023-03-08T23:11:52.502Z,87.66
2023-03-08T23:14:22.931Z,87.26
2023-03-08T23:16:52.539Z,86.94
2023-03-08T23:19:23.213Z,87.23
2023-03-08T23:21:52.437Z,87.05
2023-03-08T23:24:22.062Z,87.33
2023-03-08T23:26:54.361Z,87.01
2023-03-08T23:29:24.986Z,87.46
2023-03-08T23:31:54.421Z,87.74
2023-03-08T23:34:23.744Z,87.91
2023-03-08T23:36:53.172Z,87.53
2023-03-08T23:39:22.512Z,88.27
2023-03-08T23:41:51.670Z,88.40
2023-03-08T23:44:20.506Z,87.96
2023-03-08T23:46:51.046Z,88.43
2023-03-08T23:49:20.051Z,88.87
2023-03-08T23:51:49.160Z,89.27
2023-03-08T23:54:17.946Z,88.80
2023-03-08T23:56:47.051Z,88.96
2023-03-08T23:59:19.392Z,88.92
